Orbital elements of CZ-4C DEB
| Launched | 9 April 2018 |
| Flight ended | – |
| Launch site | Jiuquan Space Center, PRC |
| Owner | People's Republic of China |
| NORAD ID | 43281 |
| Date fetched |
Epoch osculation |
Inc. [°] |
Ecc. | RA asc node [hr] |
Arg Peri. [°] |
Mean anom [°] |
Mean motion [rev/day] |
Abs. mag |
| Date fetched |
Epoch osculation |
Inc. [°] |
Ecc. | RA asc node [hr] |
Arg Peri. [°] |
Mean anom [°] |
Mean motion [rev/day] |
Abs. mag |
| 2026 May 04 17:57 | 2026 Apr 30 14:28:13 | 63.3968 | 0.02678 | 15.0696 | 7.5817 | 352.9135 | 13.44726 | – |
| 2026 May 03 17:57 | 2026 Apr 30 14:28:13 | 63.3968 | 0.02678 | 15.0696 | 7.5817 | 352.9135 | 13.44726 | – |
| 2026 May 02 17:57 | 2026 Apr 30 14:28:13 | 63.3968 | 0.02678 | 15.0696 | 7.5817 | 352.9135 | 13.44726 | – |
| 2026 May 01 17:56 | 2026 Apr 30 14:28:13 | 63.3968 | 0.02678 | 15.0696 | 7.5817 | 352.9135 | 13.44726 | – |
| 2026 Apr 30 17:56 | 2026 Apr 30 14:28:13 | 63.3968 | 0.02678 | 15.0696 | 7.5817 | 352.9135 | 13.44726 | – |
| 2026 Apr 29 17:57 | 2026 Apr 24 12:07:15 | 63.3966 | 0.02673 | 16.1141 | 7.5799 | 352.9135 | 13.44726 | – |
| 2026 Apr 28 17:56 | 2026 Apr 24 12:07:15 | 63.3966 | 0.02673 | 16.1141 | 7.5799 | 352.9135 | 13.44726 | – |
| 2026 Apr 27 17:58 | 2026 Apr 24 12:07:15 | 63.3966 | 0.02673 | 16.1141 | 7.5799 | 352.9135 | 13.44726 | – |
| 2026 Apr 26 17:58 | 2026 Apr 24 12:07:15 | 63.3966 | 0.02673 | 16.1141 | 7.5799 | 352.9135 | 13.44726 | – |
| 2026 Apr 25 17:58 | 2026 Apr 24 12:07:15 | 63.3966 | 0.02673 | 16.1141 | 7.5799 | 352.9135 | 13.44726 | – |
| 2026 Apr 24 17:59 | 2026 Apr 24 12:07:15 | 63.3966 | 0.02673 | 16.1141 | 7.5799 | 352.9135 | 13.44726 | – |
| 2026 Apr 23 17:57 | 2026 Apr 19 03:37:08 | 63.3958 | 0.02669 | 17.0313 | 7.5815 | 352.9135 | 13.44726 | – |
| 2026 Apr 22 17:57 | 2026 Apr 19 03:37:08 | 63.3958 | 0.02669 | 17.0313 | 7.5815 | 352.9135 | 13.44726 | – |
| 2026 Apr 21 17:57 | 2026 Apr 19 03:37:08 | 63.3958 | 0.02669 | 17.0313 | 7.5815 | 352.9135 | 13.44726 | – |
| 2026 Apr 20 17:57 | 2026 Apr 19 03:37:08 | 63.3958 | 0.02669 | 17.0313 | 7.5815 | 352.9135 | 13.44726 | – |
| 2026 Apr 19 17:58 | 2026 Apr 19 03:37:08 | 63.3958 | 0.02669 | 17.0313 | 7.5815 | 352.9135 | 13.44726 | – |
| 2026 Apr 18 17:56 | 2026 Apr 12 19:54:54 | 63.3960 | 0.02663 | 18.1141 | 7.5769 | 352.9135 | 13.44726 | – |
| 2026 Apr 16 17:57 | 2026 Apr 12 19:54:54 | 63.3960 | 0.02663 | 18.1141 | 7.5769 | 352.9135 | 13.44726 | – |
| 2026 Apr 14 17:57 | 2026 Apr 12 19:54:54 | 63.3960 | 0.02663 | 18.1141 | 7.5769 | 352.9135 | 13.44726 | – |
| 2026 Apr 13 17:57 | 2026 Apr 12 19:54:54 | 63.3960 | 0.02663 | 18.1141 | 7.5769 | 352.9135 | 13.44726 | – |
| 2026 Apr 12 17:57 | 2026 Apr 08 14:11:03 | 63.3959 | 0.02660 | 18.8402 | 7.5661 | 352.9135 | 13.44726 | – |
| 2026 Apr 11 17:57 | 2026 Apr 08 14:11:03 | 63.3959 | 0.02660 | 18.8402 | 7.5661 | 352.9135 | 13.44726 | – |
| 2026 Apr 10 17:58 | 2026 Apr 08 14:11:03 | 63.3959 | 0.02660 | 18.8402 | 7.5661 | 352.9135 | 13.44726 | – |
| 2026 Apr 09 18:01 | 2026 Apr 08 14:11:03 | 63.3959 | 0.02660 | 18.8402 | 7.5661 | 352.9135 | 13.44726 | – |
| 2026 Apr 08 17:57 | 2026 Apr 08 14:11:03 | 63.3959 | 0.02660 | 18.8402 | 7.5661 | 352.9135 | 13.44726 | – |
| 2026 Apr 07 17:57 | 2026 Apr 01 23:20:28 | 63.3964 | 0.02655 | 19.9739 | 7.5471 | 352.9135 | 13.44726 | – |